Time;durP1;ratioP1;P1;durP2;ratioP2;P2;SDS_P1;SDS_P2;PMS_P1;PMS_P2;Temp;Humidity;BMP_temperature;BMP_pressure;BME280_temperature;BME280_humidity;BME280_pressure;Samples;Min_cycle;Max_cycle;Signal;HPM_P1;HPM_P2
2021/12/18 00:01:38;;;;;;;35.78;22.45;;;;;;;;;;5046732;28;20049;-81
2021/12/18 00:04:05;;;;;;;37.47;23.27;;;;;;;;;;5046395;28;20413;-81
2021/12/18 00:06:31;;;;;;;33.80;22.30;;;;;;;;;;5063017;28;20037;-81
2021/12/18 00:08:58;;;;;;;41.83;23.88;;;;;;;;;;5063158;28;20047;-83
2021/12/18 00:11:24;;;;;;;38.10;23.83;;;;;;;;;;5062939;28;20125;-81
2021/12/18 00:13:50;;;;;;;36.53;23.52;;;;;;;;;;5062989;28;20041;-81
2021/12/18 00:16:16;;;;;;;41.13;23.90;;;;;;;;;;5045330;28;20102;-81
2021/12/18 00:18:44;;;;;;;34.80;22.17;;;;;;;;;;5065367;28;20044;-81
2021/12/18 00:21:14;;;;;;;38.05;24.10;;;;;;;;;;5047288;28;20055;-81
2021/12/18 00:23:40;;;;;;;49.50;24.92;;;;;;;;;;5046457;28;20037;-80
2021/12/18 00:26:06;;;;;;;35.22;24.05;;;;;;;;;;5044482;28;20097;-80
2021/12/18 00:28:32;;;;;;;39.78;23.02;;;;;;;;;;5044009;28;20421;-79
2021/12/18 00:30:58;;;;;;;42.65;24.95;;;;;;;;;;5042581;28;20441;-81
2021/12/18 00:33:24;;;;;;;39.47;24.50;;;;;;;;;;5042395;28;20107;-80
2021/12/18 00:35:50;;;;;;;37.20;22.10;;;;;;;;;;5042082;28;20048;-81
2021/12/18 00:38:16;;;;;;;39.58;23.13;;;;;;;;;;5059199;28;20041;-81
2021/12/18 00:40:47;;;;;;;32.63;22.60;;;;;;;;;;5042675;28;20139;-80
2021/12/18 00:43:27;;;;;;;35.10;23.30;;;;;;;;;;5042401;28;20033;-81
2021/12/18 00:45:53;;;;;;;38.00;24.00;;;;;;;;;;5064458;28;20056;-81
2021/12/18 00:48:19;;;;;;;36.95;22.20;;;;;;;;;;5043238;28;20044;-80
2021/12/18 00:50:45;;;;;;;35.92;23.23;;;;;;;;;;5043512;28;20044;-80
2021/12/18 00:53:11;;;;;;;35.50;23.08;;;;;;;;;;5060608;28;20114;-80
2021/12/18 00:55:37;;;;;;;37.30;23.08;;;;;;;;;;5045893;28;20045;-82
2021/12/18 00:58:03;;;;;;;42.15;24.25;;;;;;;;;;5044087;28;20124;-81
2021/12/18 01:00:30;;;;;;;36.60;22.58;;;;;;;;;;5060104;28;20064;-82
2021/12/18 01:02:58;;;;;;;50.25;25.10;;;;;;;;;;5046771;28;20067;-81
2021/12/18 01:05:25;;;;;;;44.13;26.30;;;;;;;;;;5061119;28;20037;-80
2021/12/18 01:07:54;;;;;;;41.58;23.13;;;;;;;;;;5059538;28;20036;-79
2021/12/18 01:10:54;;;;;;;40.35;25.52;;;;;;;;;;5041266;28;20037;-79
2021/12/18 01:13:25;;;;;;;45.15;26.60;;;;;;;;;;5045366;28;20475;-83
2021/12/18 01:15:55;;;;;;;44.63;26.13;;;;;;;;;;5056026;28;20072;-79
2021/12/18 01:23:49;;;;;;;44.90;26.90;;;;;;;;;;5058064;28;20037;-80
2021/12/18 01:26:16;;;;;;;51.42;27.50;;;;;;;;;;5043463;28;20059;-83
2021/12/18 01:28:43;;;;;;;40.38;26.13;;;;;;;;;;5058415;28;20329;-83
2021/12/18 01:31:09;;;;;;;43.22;26.92;;;;;;;;;;5042425;28;20102;-83
2021/12/18 01:33:35;;;;;;;51.90;29.17;;;;;;;;;;5045374;28;20067;-80
2021/12/18 01:36:01;;;;;;;48.97;27.58;;;;;;;;;;5061394;28;20040;-81
2021/12/18 01:38:29;;;;;;;49.00;27.98;;;;;;;;;;5062948;28;20044;-81
2021/12/18 01:40:55;;;;;;;51.70;29.67;;;;;;;;;;5064479;28;20039;-82
2021/12/18 01:52:03;;;;;;;53.63;29.65;;;;;;;;;;5036097;28;20037;-84
2021/12/18 01:54:29;;;;;;;53.50;30.35;;;;;;;;;;5061920;28;20044;-83
2021/12/18 01:56:56;;;;;;;55.50;30.65;;;;;;;;;;5043365;28;20032;-84
2021/12/18 01:59:34;;;;;;;53.05;29.58;;;;;;;;;;5061823;28;20196;-84
2021/12/18 02:02:01;;;;;;;52.97;29.15;;;;;;;;;;5062967;28;20037;-81
2021/12/18 02:04:27;;;;;;;54.60;31.13;;;;;;;;;;5046186;28;20064;-78
2021/12/18 02:06:53;;;;;;;51.00;29.55;;;;;;;;;;5061240;28;20078;-81
2021/12/18 02:09:20;;;;;;;54.30;29.60;;;;;;;;;;5044873;28;20075;-81
2021/12/18 02:11:46;;;;;;;57.50;30.20;;;;;;;;;;5066164;28;20036;-81
2021/12/18 02:14:36;;;;;;;54.88;31.15;;;;;;;;;;5045003;28;20051;-80
2021/12/18 02:22:12;;;;;;;52.67;30.40;;;;;;;;;;5079002;28;20098;-79
2021/12/18 02:24:38;;;;;;;57.15;32.10;;;;;;;;;;5078965;28;20059;-80
2021/12/18 02:27:04;;;;;;;48.75;29.25;;;;;;;;;;5044169;28;20368;-81
2021/12/18 02:29:32;;;;;;;58.58;31.05;;;;;;;;;;5044913;28;20079;-83
2021/12/18 02:31:58;;;;;;;57.63;31.15;;;;;;;;;;5047750;28;20071;-83
2021/12/18 02:34:29;;;;;;;56.67;31.25;;;;;;;;;;5079226;28;20048;-82
2021/12/18 02:37:01;;;;;;;54.20;30.52;;;;;;;;;;5062621;28;20052;-82
2021/12/18 02:42:08;;;;;;;51.92;26.13;;;;;;;;;;5079376;28;20115;-83
2021/12/18 02:44:34;;;;;;;43.10;24.55;;;;;;;;;;5050440;28;20047;-83
2021/12/18 02:47:00;;;;;;;36.72;23.67;;;;;;;;;;5066690;28;20041;-83
2021/12/18 02:49:28;;;;;;;35.60;23.50;;;;;;;;;;5083416;28;20058;-82
2021/12/18 02:51:54;;;;;;;36.55;23.35;;;;;;;;;;5085256;28;20040;-81
2021/12/18 02:54:20;;;;;;;42.20;24.48;;;;;;;;;;5069120;28;20044;-83
2021/12/18 02:56:46;;;;;;;46.67;25.48;;;;;;;;;;5055835;28;20049;-83
2021/12/18 02:59:12;;;;;;;40.15;23.50;;;;;;;;;;5068048;28;20054;-83
2021/12/18 03:01:39;;;;;;;41.38;25.02;;;;;;;;;;5055110;28;20160;-79
2021/12/18 03:04:23;;;;;;;48.28;27.73;;;;;;;;;;5059139;28;20047;-80
2021/12/18 03:06:53;;;;;;;47.22;28.23;;;;;;;;;;5078879;28;20033;-85
2021/12/18 03:25:31;;;;;;;50.63;29.20;;;;;;;;;;5068048;28;20051;-81
2021/12/18 03:28:00;;;;;;;51.92;29.67;;;;;;;;;;5065607;28;20035;-81
2021/12/18 03:30:26;;;;;;;55.97;30.17;;;;;;;;;;5065575;28;20036;-80
2021/12/18 03:32:52;;;;;;;56.17;29.67;;;;;;;;;;5065265;28;20033;-81
2021/12/18 03:35:18;;;;;;;48.90;28.73;;;;;;;;;;5047815;28;20460;-79
2021/12/18 03:37:44;;;;;;;53.50;29.33;;;;;;;;;;5064472;28;20115;-80
2021/12/18 03:40:11;;;;;;;59.33;28.95;;;;;;;;;;5052887;28;20483;-82
2021/12/18 03:42:37;;;;;;;56.88;30.25;;;;;;;;;;5072222;28;20051;-82
2021/12/18 03:45:04;;;;;;;56.08;28.00;;;;;;;;;;5055803;28;20044;-82
2021/12/18 03:47:30;;;;;;;66.93;29.20;;;;;;;;;;5096684;28;20039;-81
2021/12/18 03:49:56;;;;;;;57.00;29.40;;;;;;;;;;5071711;28;20092;-81
2021/12/18 03:52:22;;;;;;;61.53;30.35;;;;;;;;;;5090068;28;20111;-81
2021/12/18 03:54:48;;;;;;;48.00;27.58;;;;;;;;;;5054894;28;20064;-79
2021/12/18 03:57:14;;;;;;;62.15;30.58;;;;;;;;;;5071133;28;20032;-80
2021/12/18 03:59:40;;;;;;;50.45;28.55;;;;;;;;;;5072179;28;20521;-78
2021/12/18 04:02:06;;;;;;;48.33;27.70;;;;;;;;;;5058486;28;20044;-80
2021/12/18 04:04:32;;;;;;;49.55;27.00;;;;;;;;;;5072423;28;20056;-81
2021/12/18 04:06:59;;;;;;;55.92;28.35;;;;;;;;;;5085034;28;20032;-83
2021/12/18 04:09:28;;;;;;;51.78;27.30;;;;;;;;;;5049081;28;20036;-83
2021/12/18 04:11:54;;;;;;;51.63;27.48;;;;;;;;;;5048904;28;20051;-81
2021/12/18 04:14:20;;;;;;;52.42;27.90;;;;;;;;;;5064615;28;20072;-80
2021/12/18 04:16:46;;;;;;;48.58;28.23;;;;;;;;;;5064435;28;20076;-81
2021/12/18 04:19:12;;;;;;;48.92;26.50;;;;;;;;;;5069959;28;20071;-79
2021/12/18 04:21:38;;;;;;;47.08;25.98;;;;;;;;;;5054794;28;20071;-77
2021/12/18 04:24:05;;;;;;;53.22;28.58;;;;;;;;;;5053406;28;20040;-77
2021/12/18 04:26:31;;;;;;;56.05;27.83;;;;;;;;;;5063282;28;20037;-78
2021/12/18 04:28:57;;;;;;;55.15;28.83;;;;;;;;;;5062768;28;20033;-82
2021/12/18 04:31:23;;;;;;;50.35;27.65;;;;;;;;;;5075191;28;20040;-80
2021/12/18 04:33:49;;;;;;;49.45;26.63;;;;;;;;;;5064062;28;20501;-80
2021/12/18 04:36:15;;;;;;;60.22;26.85;;;;;;;;;;5047075;28;20048;-80
2021/12/18 04:38:41;;;;;;;58.75;28.02;;;;;;;;;;5065216;28;20070;-83
2021/12/18 04:41:09;;;;;;;54.20;28.30;;;;;;;;;;5052007;28;20040;-82
2021/12/18 04:43:35;;;;;;;54.33;27.92;;;;;;;;;;5070729;28;20046;-82
2021/12/18 04:46:01;;;;;;;52.00;27.85;;;;;;;;;;5069623;28;20075;-81
2021/12/18 04:48:27;;;;;;;53.90;29.65;;;;;;;;;;5047729;28;20040;-81
2021/12/18 04:50:54;;;;;;;53.25;28.23;;;;;;;;;;5070323;28;20072;-81
2021/12/18 04:53:20;;;;;;;56.45;28.48;;;;;;;;;;5053625;28;20062;-81
2021/12/18 04:55:46;;;;;;;54.38;28.92;;;;;;;;;;5053755;28;20044;-80
2021/12/18 04:58:12;;;;;;;49.30;27.63;;;;;;;;;;5047187;28;20463;-82
2021/12/18 05:00:39;;;;;;;53.45;28.50;;;;;;;;;;5062692;28;20494;-83
2021/12/18 05:03:07;;;;;;;56.05;26.48;;;;;;;;;;5064275;28;20040;-79
2021/12/18 05:05:33;;;;;;;53.88;26.92;;;;;;;;;;5067180;28;20059;-79
2021/12/18 05:08:00;;;;;;;45.20;25.30;;;;;;;;;;5048888;28;20044;-79
2021/12/18 05:10:26;;;;;;;49.17;25.52;;;;;;;;;;5062244;28;20044;-81
2021/12/18 05:12:52;;;;;;;49.78;26.17;;;;;;;;;;5063256;28;20456;-83
2021/12/18 05:15:18;;;;;;;58.45;26.55;;;;;;;;;;5046650;28;20036;-84
2021/12/18 05:17:44;;;;;;;51.88;26.67;;;;;;;;;;5046126;28;20398;-83
2021/12/18 05:20:10;;;;;;;44.58;24.10;;;;;;;;;;5048144;28;20036;-84
2021/12/18 05:22:36;;;;;;;46.25;22.90;;;;;;;;;;5064408;28;20102;-83
2021/12/18 05:25:02;;;;;;;41.63;22.58;;;;;;;;;;5065404;28;20040;-81
2021/12/18 05:27:28;;;;;;;43.78;22.23;;;;;;;;;;5088432;28;20054;-83
2021/12/18 05:29:54;;;;;;;42.58;22.27;;;;;;;;;;5065244;28;20121;-82
2021/12/18 05:32:20;;;;;;;47.17;22.85;;;;;;;;;;5065989;28;20051;-83
2021/12/18 05:34:46;;;;;;;40.17;22.50;;;;;;;;;;5062440;28;20036;-82
2021/12/18 05:37:19;;;;;;;38.17;20.05;;;;;;;;;;5062006;28;20372;-83
2021/12/18 05:39:45;;;;;;;39.00;20.30;;;;;;;;;;5064934;28;20115;-84
2021/12/18 05:42:11;;;;;;;42.60;21.75;;;;;;;;;;5062301;28;20047;-83
2021/12/18 05:44:37;;;;;;;40.25;20.17;;;;;;;;;;5045618;28;20037;-84
2021/12/18 05:47:03;;;;;;;36.53;20.10;;;;;;;;;;5082716;28;20067;-82
2021/12/18 05:49:29;;;;;;;38.90;20.25;;;;;;;;;;5069963;28;20032;-79
2021/12/18 05:51:55;;;;;;;37.92;19.50;;;;;;;;;;5073637;28;20044;-79
2021/12/18 05:54:21;;;;;;;35.60;18.98;;;;;;;;;;5053864;28;20267;-81
2021/12/18 05:56:47;;;;;;;37.55;18.30;;;;;;;;;;5063140;28;20429;-85
2021/12/18 05:59:13;;;;;;;36.05;19.35;;;;;;;;;;5047278;28;20119;-84
2021/12/18 06:01:39;;;;;;;34.60;17.92;;;;;;;;;;5064091;28;20141;-84
2021/12/18 06:04:05;;;;;;;29.02;17.83;;;;;;;;;;5063007;28;20378;-84
2021/12/18 06:06:31;;;;;;;31.67;18.13;;;;;;;;;;5064223;28;20036;-82
2021/12/18 06:08:57;;;;;;;30.45;16.85;;;;;;;;;;5048202;28;20397;-84
2021/12/18 06:11:27;;;;;;;34.50;18.90;;;;;;;;;;5057123;28;20051;-84
2021/12/18 06:13:53;;;;;;;35.42;18.20;;;;;;;;;;5078493;28;20047;-82
2021/12/18 06:16:19;;;;;;;33.53;18.02;;;;;;;;;;5063657;28;20301;-80
2021/12/18 06:18:46;;;;;;;33.47;17.58;;;;;;;;;;5049791;28;20045;-82
2021/12/18 06:21:13;;;;;;;36.80;18.23;;;;;;;;;;5067634;28;20048;-83
2021/12/18 06:23:40;;;;;;;39.60;19.23;;;;;;;;;;5051161;28;20032;-83
2021/12/18 06:26:06;;;;;;;43.25;19.45;;;;;;;;;;5050836;28;20036;-80
2021/12/18 06:28:32;;;;;;;43.83;20.85;;;;;;;;;;5067038;28;20051;-81
2021/12/18 06:30:58;;;;;;;39.88;19.23;;;;;;;;;;5050461;28;20048;-81
2021/12/18 06:33:24;;;;;;;38.90;20.95;;;;;;;;;;5066971;28;20048;-81
2021/12/18 06:35:50;;;;;;;37.17;20.75;;;;;;;;;;5072819;28;20047;-83
2021/12/18 06:38:16;;;;;;;38.15;20.40;;;;;;;;;;5066005;28;20047;-84
2021/12/18 06:40:42;;;;;;;43.17;21.25;;;;;;;;;;5048970;28;20055;-81
2021/12/18 06:43:08;;;;;;;43.70;20.90;;;;;;;;;;5048502;28;20094;-81
2021/12/18 06:45:34;;;;;;;38.20;19.17;;;;;;;;;;5049427;28;20036;-83
2021/12/18 06:48:00;;;;;;;45.05;22.25;;;;;;;;;;5065980;28;20448;-82
2021/12/18 06:50:27;;;;;;;42.10;22.23;;;;;;;;;;5083287;28;20063;-82
2021/12/18 06:52:53;;;;;;;45.22;20.98;;;;;;;;;;5083165;28;20032;-83
2021/12/18 06:55:19;;;;;;;36.30;19.90;;;;;;;;;;5082764;28;20072;-83
2021/12/18 06:57:45;;;;;;;45.00;21.88;;;;;;;;;;5071727;28;20028;-82
2021/12/18 07:00:12;;;;;;;42.10;21.33;;;;;;;;;;5064587;28;20044;-80
2021/12/18 07:02:38;;;;;;;43.42;21.00;;;;;;;;;;5050433;28;20048;-83
2021/12/18 07:05:04;;;;;;;42.20;21.00;;;;;;;;;;5045365;28;20036;-83
2021/12/18 07:07:30;;;;;;;49.50;21.65;;;;;;;;;;5045531;28;20075;-83
2021/12/18 07:09:56;;;;;;;39.03;20.48;;;;;;;;;;5045738;28;20059;-81
2021/12/18 07:12:22;;;;;;;48.95;21.95;;;;;;;;;;5046386;28;20387;-83
2021/12/18 07:14:48;;;;;;;39.50;21.45;;;;;;;;;;5063462;28;20384;-83
2021/12/18 07:17:14;;;;;;;39.20;20.55;;;;;;;;;;5071122;28;20033;-84
2021/12/18 07:19:40;;;;;;;43.42;21.05;;;;;;;;;;5051239;28;20025;-82
2021/12/18 07:22:06;;;;;;;42.40;21.52;;;;;;;;;;5051804;28;20781;-82
2021/12/18 07:24:32;;;;;;;42.47;21.60;;;;;;;;;;5062613;28;20098;-83
2021/12/18 07:26:58;;;;;;;44.20;21.23;;;;;;;;;;5046079;28;20432;-82
2021/12/18 07:29:24;;;;;;;41.58;21.25;;;;;;;;;;5044934;28;20084;-81
2021/12/18 07:31:51;;;;;;;43.47;20.35;;;;;;;;;;5062898;28;20041;-84
2021/12/18 07:34:17;;;;;;;51.30;21.35;;;;;;;;;;5060320;28;20120;-82
2021/12/18 07:36:43;;;;;;;45.42;21.10;;;;;;;;;;5060994;28;20083;-81
2021/12/18 07:39:09;;;;;;;44.33;20.08;;;;;;;;;;5062203;28;20068;-82
2021/12/18 07:41:35;;;;;;;38.28;20.05;;;;;;;;;;5049127;28;20048;-79
2021/12/18 07:44:03;;;;;;;39.67;20.95;;;;;;;;;;5051669;28;20037;-81
2021/12/18 07:46:29;;;;;;;40.15;20.00;;;;;;;;;;5058452;28;20126;-80
2021/12/18 07:48:55;;;;;;;42.90;21.05;;;;;;;;;;5058647;28;20048;-81
2021/12/18 07:51:21;;;;;;;38.63;19.77;;;;;;;;;;5062137;28;20029;-80
2021/12/18 07:53:47;;;;;;;45.15;19.63;;;;;;;;;;5044785;28;20052;-79
2021/12/18 07:56:13;;;;;;;43.88;20.98;;;;;;;;;;5061749;28;20048;-81
2021/12/18 07:58:39;;;;;;;44.92;19.67;;;;;;;;;;5062184;28;20361;-82
2021/12/18 08:01:05;;;;;;;39.38;20.27;;;;;;;;;;5045586;28;20049;-82
2021/12/18 08:03:31;;;;;;;43.20;21.08;;;;;;;;;;5043351;28;20040;-82
2021/12/18 08:05:57;;;;;;;36.42;19.23;;;;;;;;;;5042873;28;20033;-81
2021/12/18 08:08:23;;;;;;;39.05;19.42;;;;;;;;;;5059897;28;20041;-81
2021/12/18 08:10:49;;;;;;;39.72;19.02;;;;;;;;;;5042302;28;20036;-83
2021/12/18 08:13:15;;;;;;;39.17;19.60;;;;;;;;;;5059486;28;20037;-82
2021/12/18 08:15:41;;;;;;;45.28;19.60;;;;;;;;;;5059725;28;20084;-80
2021/12/18 08:18:07;;;;;;;39.78;20.00;;;;;;;;;;5041794;28;20048;-83
2021/12/18 08:20:34;;;;;;;42.97;21.20;;;;;;;;;;5060892;28;20360;-79
2021/12/18 08:23:00;;;;;;;42.05;19.90;;;;;;;;;;5061705;28;20040;-79
2021/12/18 08:25:27;;;;;;;41.08;19.75;;;;;;;;;;5059751;28;20033;-81
2021/12/18 08:27:55;;;;;;;37.20;19.20;;;;;;;;;;5042818;28;20041;-82
2021/12/18 08:30:21;;;;;;;41.60;19.17;;;;;;;;;;5059550;28;20074;-82
2021/12/18 08:32:47;;;;;;;35.30;18.60;;;;;;;;;;5048547;28;20063;-82
2021/12/18 08:35:13;;;;;;;41.10;19.48;;;;;;;;;;5062658;28;20025;-82
2021/12/18 08:37:40;;;;;;;36.63;18.55;;;;;;;;;;5070562;28;20074;-83
2021/12/18 08:40:06;;;;;;;40.70;19.08;;;;;;;;;;5045612;28;20065;-82
2021/12/18 08:42:32;;;;;;;44.58;19.58;;;;;;;;;;5045195;28;20057;-82
2021/12/18 08:44:58;;;;;;;39.35;19.73;;;;;;;;;;5063075;28;20429;-84
2021/12/18 08:47:25;;;;;;;35.47;19.50;;;;;;;;;;5062649;28;20116;-82
2021/12/18 08:49:51;;;;;;;45.53;21.38;;;;;;;;;;5064024;28;20037;-82
2021/12/18 08:52:18;;;;;;;52.08;22.08;;;;;;;;;;5064378;28;20086;-82
2021/12/18 08:54:44;;;;;;;45.22;20.63;;;;;;;;;;5047232;28;20460;-82
2021/12/18 08:57:10;;;;;;;46.35;22.05;;;;;;;;;;5046140;28;20040;-84
2021/12/18 08:59:37;;;;;;;45.10;22.13;;;;;;;;;;5047633;28;20033;-82
2021/12/18 09:02:03;;;;;;;45.75;22.48;;;;;;;;;;5069365;28;20052;-81
2021/12/18 09:04:29;;;;;;;47.63;23.42;;;;;;;;;;5075172;28;20036;-83
2021/12/18 09:06:55;;;;;;;43.28;22.45;;;;;;;;;;5059866;28;20036;-82
2021/12/18 09:09:21;;;;;;;43.40;21.70;;;;;;;;;;5060616;28;20051;-83
2021/12/18 09:11:47;;;;;;;42.80;22.42;;;;;;;;;;5073691;28;20040;-83
2021/12/18 09:14:13;;;;;;;43.85;22.67;;;;;;;;;;5066994;28;20040;-82
2021/12/18 09:16:39;;;;;;;41.45;22.48;;;;;;;;;;5050509;28;20044;-83
2021/12/18 09:19:05;;;;;;;47.70;22.58;;;;;;;;;;5049775;28;20040;-83
2021/12/18 09:21:31;;;;;;;43.10;22.88;;;;;;;;;;5071639;28;20036;-81
2021/12/18 09:23:57;;;;;;;46.38;22.05;;;;;;;;;;5080894;28;20051;-82
2021/12/18 09:26:23;;;;;;;49.35;22.88;;;;;;;;;;5088363;28;20056;-81
2021/12/18 09:28:49;;;;;;;46.10;22.70;;;;;;;;;;5069308;28;20036;-84
2021/12/18 09:31:15;;;;;;;44.08;22.52;;;;;;;;;;5066395;28;20056;-83
2021/12/18 09:33:41;;;;;;;40.42;21.10;;;;;;;;;;5049892;28;20106;-83
2021/12/18 09:36:07;;;;;;;47.85;23.42;;;;;;;;;;5065671;28;20037;-83
2021/12/18 09:38:33;;;;;;;42.38;21.05;;;;;;;;;;5065846;28;20094;-82
2021/12/18 09:41:03;;;;;;;44.35;20.33;;;;;;;;;;5065582;28;20056;-82
2021/12/18 09:43:29;;;;;;;38.00;19.83;;;;;;;;;;5065795;28;20109;-83
2021/12/18 09:46:01;;;;;;;45.25;18.92;;;;;;;;;;5066736;28;20060;-83
2021/12/18 09:48:27;;;;;;;28.60;16.73;;;;;;;;;;5066597;28;20060;-83
2021/12/18 09:50:56;;;;;;;29.17;16.90;;;;;;;;;;5049229;28;20049;-84
2021/12/18 09:53:22;;;;;;;33.72;14.95;;;;;;;;;;5065547;28;20048;-83
2021/12/18 09:55:48;;;;;;;20.70;11.35;;;;;;;;;;5050566;28;20060;-84
2021/12/18 09:58:14;;;;;;;16.20;10.43;;;;;;;;;;5050752;28;20040;-83
2021/12/18 10:00:40;;;;;;;18.10;11.60;;;;;;;;;;5048108;28;20125;-82
2021/12/18 10:03:07;;;;;;;21.70;12.73;;;;;;;;;;5064802;28;20101;-84
2021/12/18 10:05:34;;;;;;;22.20;13.30;;;;;;;;;;5064818;28;20036;-84
2021/12/18 10:08:14;;;;;;;27.42;13.45;;;;;;;;;;5065085;28;20032;-82
2021/12/18 10:10:57;;;;;;;20.80;11.88;;;;;;;;;;5056407;28;20024;-79
2021/12/18 10:13:23;;;;;;;21.25;12.85;;;;;;;;;;5048223;28;20047;-82
2021/12/18 10:16:06;;;;;;;23.60;13.68;;;;;;;;;;5065374;28;20063;-81
2021/12/18 10:18:35;;;;;;;20.83;11.23;;;;;;;;;;5064303;28;20414;-83
2021/12/18 10:21:27;;;;;;;22.52;12.43;;;;;;;;;;5052429;28;20031;-79
2021/12/18 10:23:53;;;;;;;21.98;11.55;;;;;;;;;;5085173;28;20041;-79
2021/12/18 10:26:36;;;;;;;24.35;11.82;;;;;;;;;;5048816;28;20037;-82
2021/12/18 10:29:03;;;;;;;22.23;12.30;;;;;;;;;;5048123;28;20448;-80
2021/12/18 10:31:43;;;;;;;23.50;13.38;;;;;;;;;;5047113;28;20041;-79
2021/12/18 10:34:22;;;;;;;25.95;13.95;;;;;;;;;;5065392;28;20472;-81
2021/12/18 10:37:07;;;;;;;24.17;13.23;;;;;;;;;;5046741;28;20044;-80
2021/12/18 10:39:37;;;;;;;26.23;13.95;;;;;;;;;;5080631;28;20420;-80
2021/12/18 10:42:16;;;;;;;26.55;14.00;;;;;;;;;;5080573;28;20045;-82
2021/12/18 10:44:58;;;;;;;27.55;15.00;;;;;;;;;;5045273;28;20044;-80
2021/12/18 10:47:24;;;;;;;27.05;14.25;;;;;;;;;;5079093;28;20036;-81
2021/12/18 10:49:50;;;;;;;25.65;15.13;;;;;;;;;;5051741;28;20029;-81
2021/12/18 10:52:16;;;;;;;30.27;15.35;;;;;;;;;;5057181;28;20044;-81
2021/12/18 10:54:42;;;;;;;26.13;15.60;;;;;;;;;;5062107;28;20060;-81
2021/12/18 10:57:19;;;;;;;28.92;15.50;;;;;;;;;;5056928;28;20040;-81
2021/12/18 10:59:50;;;;;;;30.95;15.63;;;;;;;;;;5072958;28;20067;-80
2021/12/18 11:02:16;;;;;;;31.70;15.63;;;;;;;;;;5048081;28;20041;-81
2021/12/18 11:04:44;;;;;;;29.15;15.95;;;;;;;;;;5048688;28;20044;-82
2021/12/18 11:07:21;;;;;;;33.20;17.85;;;;;;;;;;5061226;28;20043;-81
2021/12/18 11:10:12;;;;;;;32.72;16.65;;;;;;;;;;5062116;28;20036;-82
2021/12/18 11:15:25;;;;;;;38.90;18.65;;;;;;;;;;5068363;28;20036;-81
2021/12/18 11:17:51;;;;;;;33.60;18.52;;;;;;;;;;5049328;28;20040;-79
2021/12/18 11:20:17;;;;;;;39.60;19.25;;;;;;;;;;5083499;28;20124;-81
2021/12/18 11:22:43;;;;;;;28.77;16.63;;;;;;;;;;5066011;28;20120;-84
2021/12/18 11:25:12;;;;;;;32.63;17.65;;;;;;;;;;5050080;28;20041;-84
2021/12/18 11:27:38;;;;;;;34.88;17.83;;;;;;;;;;5049279;28;20090;-83
2021/12/18 11:30:11;;;;;;;31.08;17.08;;;;;;;;;;5048879;28;20064;-80
2021/12/18 11:32:41;;;;;;;23.92;15.20;;;;;;;;;;5065288;28;20059;-78
2021/12/18 11:35:09;;;;;;;28.65;16.65;;;;;;;;;;5048505;28;20036;-80
2021/12/18 11:37:42;;;;;;;26.77;16.48;;;;;;;;;;5051980;28;20128;-80
2021/12/18 11:40:08;;;;;;;;;;;;;;;;;;5048365;28;20051;-80
2021/12/18 11:42:34;;;;;;;31.58;16.77;;;;;;;;;;5081843;28;19913;-80
2021/12/18 11:45:01;;;;;;;28.38;16.33;;;;;;;;;;5048734;28;20097;-78
2021/12/18 11:47:27;;;;;;;29.67;15.95;;;;;;;;;;5065026;28;20037;-80
2021/12/18 11:49:54;;;;;;;27.83;16.35;;;;;;;;;;5064708;28;20447;-79
2021/12/18 11:52:20;;;;;;;25.35;15.55;;;;;;;;;;5082232;28;20448;-78
2021/12/18 11:54:50;;;;;;;31.30;15.70;;;;;;;;;;5081491;28;20051;-78
2021/12/18 11:57:35;;;;;;;20.60;12.98;;;;;;;;;;5064669;28;20037;-78
2021/12/18 12:00:01;;;;;;;20.23;12.70;;;;;;;;;;5064838;28;20048;-82
2021/12/18 12:02:46;;;;;;;22.65;11.70;;;;;;;;;;5048020;28;20040;-82
2021/12/18 12:05:13;;;;;;;18.95;11.25;;;;;;;;;;5049794;28;20063;-82
2021/12/18 12:07:39;;;;;;;21.10;11.73;;;;;;;;;;5050502;28;20039;-81
2021/12/18 12:10:12;;;;;;;21.13;11.52;;;;;;;;;;5049791;28;20466;-79
2021/12/18 12:12:54;;;;;;;23.50;12.60;;;;;;;;;;5065947;28;20044;-79
2021/12/18 12:15:22;;;;;;;21.25;11.70;;;;;;;;;;5049509;28;20044;-82
2021/12/18 12:17:57;;;;;;;22.38;13.30;;;;;;;;;;5049149;28;20044;-80
2021/12/18 12:20:35;;;;;;;24.58;13.00;;;;;;;;;;5065281;28;20072;-80
2021/12/18 12:23:02;;;;;;;21.05;12.15;;;;;;;;;;5083365;28;20033;-80
2021/12/18 12:25:36;;;;;;;25.83;13.02;;;;;;;;;;5048955;28;20040;-80
2021/12/18 12:28:06;;;;;;;24.20;14.15;;;;;;;;;;5048872;28;20024;-79
2021/12/18 12:30:37;;;;;;;24.35;13.77;;;;;;;;;;5065072;28;20036;-81
2021/12/18 12:33:04;;;;;;;22.80;12.15;;;;;;;;;;5065683;28;20096;-80
2021/12/18 12:35:30;;;;;;;23.50;13.50;;;;;;;;;;5066934;28;20033;-81
2021/12/18 12:37:57;;;;;;;25.55;13.20;;;;;;;;;;5048802;28;20036;-80
2021/12/18 12:40:35;;;;;;;23.70;13.43;;;;;;;;;;5066628;28;20100;-82
2021/12/18 12:43:23;;;;;;;25.63;14.10;;;;;;;;;;5053199;28;20037;-81
2021/12/18 12:45:51;;;;;;;22.67;14.52;;;;;;;;;;5066730;28;20036;-80
2021/12/18 12:48:17;;;;;;;32.13;14.88;;;;;;;;;;5065020;28;20036;-81
2021/12/18 12:50:43;;;;;;;27.40;15.38;;;;;;;;;;5047930;28;20052;-80
2021/12/18 12:53:10;;;;;;;30.52;18.13;;;;;;;;;;5046712;28;20074;-80
2021/12/18 12:55:40;;;;;;;33.17;17.33;;;;;;;;;;5064263;28;20044;-81
2021/12/18 12:58:15;;;;;;;34.28;18.20;;;;;;;;;;5047657;28;20040;-81
2021/12/18 13:00:41;;;;;;;33.70;18.27;;;;;;;;;;5064715;28;20057;-81
2021/12/18 13:03:12;;;;;;;35.05;18.88;;;;;;;;;;5048723;28;20374;-81
2021/12/18 13:05:49;;;;;;;33.58;18.30;;;;;;;;;;5048590;28;20049;-81
2021/12/18 13:08:15;;;;;;;30.58;18.00;;;;;;;;;;5064441;28;20096;-80
2021/12/18 13:10:41;;;;;;;34.22;18.00;;;;;;;;;;5047981;28;20476;-80
2021/12/18 13:13:08;;;;;;;30.00;18.48;;;;;;;;;;5048145;28;20064;-81
2021/12/18 13:15:51;;;;;;;30.15;17.42;;;;;;;;;;5049258;28;20089;-82
2021/12/18 13:18:17;;;;;;;34.00;17.25;;;;;;;;;;5069386;28;20043;-80
2021/12/18 13:20:44;;;;;;;31.77;18.05;;;;;;;;;;5080449;28;20428;-79
2021/12/18 13:23:14;;;;;;;40.40;19.92;;;;;;;;;;5062767;28;20046;-81
2021/12/18 13:25:55;;;;;;;32.47;18.67;;;;;;;;;;5046927;28;20067;-78
2021/12/18 13:28:21;;;;;;;39.92;21.13;;;;;;;;;;5046978;28;20064;-79
2021/12/18 13:30:50;;;;;;;43.50;22.20;;;;;;;;;;5048453;28;20044;-83
2021/12/18 13:33:16;;;;;;;41.42;22.70;;;;;;;;;;5048345;28;20036;-80
2021/12/18 13:35:42;;;;;;;46.75;24.35;;;;;;;;;;5064785;28;20363;-79
2021/12/18 13:38:12;;;;;;;43.38;23.85;;;;;;;;;;5081402;28;20036;-79
2021/12/18 13:40:39;;;;;;;45.75;22.92;;;;;;;;;;5063912;28;20052;-79
2021/12/18 13:43:10;;;;;;;39.42;22.23;;;;;;;;;;5046689;28;20092;-79
2021/12/18 13:45:47;;;;;;;41.10;21.83;;;;;;;;;;5065203;28;20040;-80
2021/12/18 13:48:13;;;;;;;41.35;21.00;;;;;;;;;;5073461;28;20045;-80
2021/12/18 13:50:39;;;;;;;39.45;20.83;;;;;;;;;;5081771;28;20037;-81
2021/12/18 13:53:06;;;;;;;46.63;21.00;;;;;;;;;;5081020;28;20439;-83
2021/12/18 13:55:33;;;;;;;37.55;20.65;;;;;;;;;;5062280;28;20428;-85
2021/12/18 13:58:02;;;;;;;39.80;19.10;;;;;;;;;;5045366;28;20071;-85
2021/12/18 14:00:28;;;;;;;33.40;18.80;;;;;;;;;;5061648;28;20057;-83
2021/12/18 14:02:54;;;;;;;40.80;20.17;;;;;;;;;;5075234;28;20037;-82
2021/12/18 14:05:20;;;;;;;43.00;21.00;;;;;;;;;;5052864;28;20051;-80
2021/12/18 14:07:46;;;;;;;35.25;19.80;;;;;;;;;;5062094;28;20029;-82
2021/12/18 14:10:13;;;;;;;38.78;19.98;;;;;;;;;;5068422;28;20039;-84
2021/12/18 14:12:39;;;;;;;47.05;21.42;;;;;;;;;;5069762;28;20047;-81
2021/12/18 14:15:05;;;;;;;43.40;20.90;;;;;;;;;;5061647;28;20068;-81
2021/12/18 14:17:32;;;;;;;43.63;22.85;;;;;;;;;;5061557;28;20045;-81
2021/12/18 14:20:11;;;;;;;47.85;23.35;;;;;;;;;;5044776;28;20451;-80
2021/12/18 14:22:38;;;;;;;48.30;23.95;;;;;;;;;;5060025;28;20044;-82
2021/12/18 14:25:04;;;;;;;45.70;23.70;;;;;;;;;;5060435;28;20033;-80
2021/12/18 14:27:40;;;;;;;46.53;23.40;;;;;;;;;;5059237;28;20044;-80
2021/12/18 14:30:12;;;;;;;50.40;24.73;;;;;;;;;;5044681;28;20087;-79
2021/12/18 14:32:39;;;;;;;39.55;19.55;;;;;;;;;;5065171;28;20056;-80
2021/12/18 14:35:06;;;;;;;24.52;13.57;;;;;;;;;;5058462;28;20037;-79
2021/12/18 14:37:32;;;;;;;18.77;11.27;;;;;;;;;;5042594;28;20041;-80
2021/12/18 14:40:01;;;;;;;18.63;10.20;;;;;;;;;;5045990;28;20041;-79
2021/12/18 14:45:18;;;;;;;17.75;8.38;;;;;;;;;;5078873;28;20021;-79
2021/12/18 14:47:45;;;;;;;19.42;9.23;;;;;;;;;;5049041;28;20045;-79
2021/12/18 14:50:11;;;;;;;16.90;9.95;;;;;;;;;;5065320;28;20047;-79
2021/12/18 14:52:51;;;;;;;14.25;9.38;;;;;;;;;;5070743;28;20044;-78
2021/12/18 14:55:19;;;;;;;15.55;9.57;;;;;;;;;;5047846;28;20041;-80
2021/12/18 14:57:55;;;;;;;15.68;10.38;;;;;;;;;;5047282;28;20538;-79
2021/12/18 15:00:23;;;;;;;23.88;11.60;;;;;;;;;;5046301;28;20060;-79
2021/12/18 15:02:58;;;;;;;21.88;11.80;;;;;;;;;;5044754;28;20033;-78
2021/12/18 15:05:24;;;;;;;18.48;12.00;;;;;;;;;;5062098;28;20041;-79
2021/12/18 15:08:04;;;;;;;18.85;11.73;;;;;;;;;;5061673;28;20033;-79